Flight Track Log - Related Links

Times and Time Zones

All times are in EDT time to prevent confusion due to time zone crossing. See the AIE828 flight status page for this flight to view local times or setup timezone preferences in your user account.

Time Position Orientation Groundspeed Altitude Reporting Facility
EDT Latitude Longitude Course Direction KTS MPH feet Rate Location/Type
Sun 02:22:00 PM 58.4760 -69.0031 321° Northwest  Level FlightAware Approximate
Sun 02:23:00 PM 58.5300 -69.0866 321° Northwest  Level FlightAware Approximate
Sun 02:24:00 PM 58.5840 -69.1704 321° Northwest  Level FlightAware Approximate
Sun 02:25:00 PM 58.6379 -69.2544 321° Northwest  Level FlightAware Approximate
Sun 02:26:00 PM 58.6917 -69.3386 321° Northwest  Level FlightAware Approximate
Sun 02:27:00 PM 58.7455 -69.4231 321° Northwest  Level FlightAware Approximate
Sun 02:28:00 PM 58.7992 -69.5079 321° Northwest  Level FlightAware Approximate
Sun 02:29:00 PM 58.8529 -69.5930 321° Northwest  Level FlightAware Approximate
Sun 02:30:00 PM 58.9065 -69.6783 321° Northwest  Level FlightAware Approximate
Sun 02:31:00 PM 58.9601 -69.7639 321° Northwest  Level FlightAware Approximate
Sun 02:32:00 PM 59.0136 -69.8497 320° Northwest  Level FlightAware Approximate
Sun 02:33:00 PM 59.0670 -69.9358 320° Northwest  Level FlightAware Approximate
Sun 02:34:00 PM 59.1204 -70.0222 320° Northwest  Level FlightAware Approximate
Sun 02:35:00 PM 59.1737 -70.1089 320° Northwest  Level FlightAware Approximate
Sun 02:36:00 PM 59.2270 -70.1958 320° Northwest  Level FlightAware Approximate
Sun 02:37:00 PM 59.2802 -70.2830 320° Northwest  Level FlightAware Approximate
Sun 02:38:00 PM 59.3334 -70.3704 320° Northwest  Level FlightAware Approximate
Sun 02:39:00 PM 59.3865 -70.4582 320° Northwest  Level FlightAware Approximate
Sun 02:40:00 PM 59.4395 -70.5462 320° Northwest  Level FlightAware Approximate
Sun 02:41:00 PM 59.4925 -70.6345 320° Northwest  Level FlightAware Approximate
Sun 02:42:00 PM 59.5454 -70.7230 320° Northwest  Level FlightAware Approximate
Sun 02:43:00 PM 59.5983 -70.8119 320° Northwest  Level FlightAware Approximate
Sun 02:44:00 PM 59.6511 -70.9010 320° Northwest  Level FlightAware Approximate
Sun 02:45:00 PM 59.7038 -70.9904 319° Northwest  Level FlightAware Approximate
Sun 02:46:00 PM 59.7565 -71.0801 319° Northwest  Level FlightAware Approximate
Sun 02:47:00 PM 59.8091 -71.1701 319° Northwest  Level FlightAware Approximate
Sun 02:48:00 PM 59.8617 -71.2603 319° Northwest  Level FlightAware Approximate
Sun 02:49:00 PM 59.9142 -71.3509 319° Northwest  Level FlightAware Approximate
Sun 02:50:00 PM 59.9666 -71.4417 319° Northwest  Level FlightAware Approximate
Sun 02:51:00 PM 60.0190 -71.5328 319° Northwest  Level FlightAware Approximate
Sun 02:52:00 PM 60.0713 -71.6242 319° Northwest  Level FlightAware Approximate
Sun 02:53:00 PM 60.1235 -71.7159 319° Northwest  Level FlightAware Approximate
Sun 02:54:00 PM 60.1757 -71.8079 319° Northwest  Level FlightAware Approximate
Sun 02:55:00 PM 60.2278 -71.9002 319° Northwest  Level FlightAware Approximate
Sun 02:56:00 PM 60.2799 -71.9927 319° Northwest  Level FlightAware Approximate
Sun 02:57:00 PM 60.3319 -72.0856 319° Northwest  Level FlightAware Approximate
Sun 02:58:00 PM 60.3838 -72.1788 318° Northwest  Level FlightAware Approximate
Sun 02:59:00 PM 60.4357 -72.2722 318° Northwest  Level FlightAware Approximate
Sun 03:00:00 PM 60.4874 -72.3660 318° Northwest  Level FlightAware Approximate
Sun 03:01:00 PM 60.5392 -72.4600 318° Northwest  Level FlightAware Approximate
Sun 03:02:00 PM 60.5908 -72.5544 318° Northwest  Level FlightAware Approximate
Sun 03:03:00 PM 60.6424 -72.6491 318° Northwest  Level FlightAware Approximate
Sun 03:04:00 PM 60.6940 -72.7440 318° Northwest  Level FlightAware Approximate
Sun 03:05:00 PM 60.7454 -72.8393 318° Northwest  Level FlightAware Approximate
Sun 03:06:00 PM 60.7968 -72.9349 318° Northwest  Level FlightAware Approximate
Sun 03:07:00 PM 60.8481 -73.0307 318° Northwest  Level FlightAware Approximate
Sun 03:08:00 PM 60.8994 -73.1269 318° Northwest  Level FlightAware Approximate
Sun 03:09:00 PM 60.9506 -73.2234 318° Northwest  Level FlightAware Approximate
Sun 03:10:00 PM 61.0017 -73.3203 317° Northwest  Level FlightAware Approximate
Sun 03:11:00 PM 61.0527 -73.4174 317° Northwest  Level FlightAware Approximate
Sun 03:12:00 PM 61.1037 -73.5148 317° Northwest  Level FlightAware Approximate
Sun 03:13:00 PM 61.1546 -73.6126 317° Northwest  Level FlightAware Approximate
Sun 03:14:00 PM 61.2055 -73.7106 317° Northwest  Level FlightAware Approximate
Sun 03:15:00 PM 61.2562 -73.8090 317° Northwest  Level FlightAware Approximate
Sun 03:16:00 PM 61.3069 -73.9077 317° Northwest  Level FlightAware Approximate
Sun 03:17:00 PM 61.3575 -74.0067 317° Northwest  Level FlightAware Approximate
Sun 03:18:00 PM 61.4081 -74.1061 317° Northwest  Level FlightAware Approximate
Sun 03:19:00 PM 61.4586 -74.2057 317° Northwest  Level FlightAware Approximate
Sun 03:20:00 PM 61.5090 -74.3057 317° Northwest  Level FlightAware Approximate
Sun 03:21:00 PM 61.5593 -74.4060 317° Northwest  Level FlightAware Approximate
Sun 03:22:00 PM 61.6096 -74.5067 316° Northwest  Level FlightAware Approximate
Sun 03:23:00 PM 61.6597 -74.6076 316° Northwest  Level FlightAware Approximate
Sun 03:24:00 PM 61.7098 -74.7089 316° Northwest  Level FlightAware Approximate
Sun 03:25:00 PM 61.7599 -74.8105 316° Northwest  Level FlightAware Approximate
Sun 03:26:00 PM 61.8098 -74.9125 316° Northwest  Level FlightAware Approximate
Sun 03:27:00 PM 61.8597 -75.0148 316° Northwest  Level FlightAware Approximate
Sun 03:28:00 PM 61.9095 -75.1174 316° Northwest  Level FlightAware Approximate
Sun 03:29:00 PM 61.9610 -75.2163 320° Northwest  Level FlightAware Approximate
Sun 03:30:00 PM 62.0140 -75.3118 320° Northwest  Level FlightAware Approximate
Sun 03:31:00 PM 62.0611 -75.4203 312° West  Level FlightAware Approximate
Sun 03:32:00 PM 62.1080 -75.5222 321° Northwest  Level FlightAware Approximate
Sun 03:33:00 PM 62.1546 -75.6305 306° West  Level FlightAware Approximate
Sun 03:34:00 PM 62.1667 -75.6667 306° West  Level FlightAware Approximate
Sun 03:35:00 PM 62.1792 -75.6669 306° West  Level Estimated
Sun 03:36:00 PM 62.1792 -75.6669 306° West  Level Estimated
Sun 03:37:00 PM 62.1792 -75.6669 306° West  Level Estimated
Sun 03:38:00 PM 62.1792 -75.6669 306° West  Level Estimated
Sun 03:39:00 PM 62.1792 -75.6669 306° West  Level Estimated
Sun 03:40:00 PM 62.1792 -75.6669 306° West  Level Estimated
Sun 03:41:00 PM 62.1792 -75.6669 306° West  Level Estimated
Sun 03:42:00 PM 62.1792 -75.6669 306° West  Level Estimated
Sun 03:43:00 PM 62.1792 -75.6669 306° West  Level Estimated
Sun 03:44:00 PM 62.1792 -75.6669 306° West  Level Estimated
Sun 03:45:00 PM 62.1792 -75.6669 306° West  Level Estimated
Sun 03:46:00 PM 62.1792 -75.6669 306° West  Level Estimated
Sun 03:47:00 PM 62.1792 -75.6669 306° West  Level Estimated
Sun 03:48:00 PM 62.1792 -75.6669 306° West  Level Estimated
Sun 03:49:00 PM 62.1792 -75.6669 306° West  Level Estimated

Login

Don't have an account? Register now (free) for customized features, flight alerts, and more!